Time;durP1;ratioP1;P1;durP2;ratioP2;P2;SDS_P1;SDS_P2;PMS_P1;PMS_P2;Temp;Humidity;BMP_temperature;BMP_pressure;BME280_temperature;BME280_humidity;BME280_pressure;Samples;Min_cycle;Max_cycle;Signal;HPM_P1;HPM_P2
2021/09/29 00:00:07;;;;;;;18.10;11.95;;;9.80;97.00;;;;;;5022970;28;20034;-66
2021/09/29 00:02:33;;;;;;;19.80;11.82;;;9.90;97.20;;;;;;5020207;28;20029;-67
2021/09/29 00:04:58;;;;;;;20.90;10.88;;;10.00;97.20;;;;;;5026028;28;20163;-67
2021/09/29 00:07:24;;;;;;;21.85;11.75;;;10.00;96.90;;;;;;5024259;28;20034;-66
2021/09/29 00:09:50;;;;;;;17.83;11.57;;;9.90;96.90;;;;;;5026742;28;20123;-65
2021/09/29 00:12:15;;;;;;;17.05;9.77;;;9.90;96.90;;;;;;5023325;28;20041;-67
2021/09/29 00:14:41;;;;;;;17.75;11.25;;;9.90;97.10;;;;;;5027707;28;20037;-66
2021/09/29 00:17:06;;;;;;;19.48;11.20;;;10.00;97.20;;;;;;5021743;28;20489;-67
2021/09/29 00:19:32;;;;;;;18.88;11.50;;;10.00;97.10;;;;;;5029903;28;20029;-64
2021/09/29 00:21:58;;;;;;;18.33;11.23;;;10.00;97.10;;;;;;5026799;28;20533;-67
2021/09/29 00:24:23;;;;;;;21.10;11.32;;;10.00;97.10;;;;;;5029131;28;20554;-66
2021/09/29 00:26:49;;;;;;;24.38;12.18;;;10.10;97.10;;;;;;5026076;28;20133;-66
2021/09/29 00:29:15;;;;;;;19.15;10.77;;;10.10;97.00;;;;;;5027026;28;20021;-66
2021/09/29 00:31:40;;;;;;;21.83;11.20;;;10.10;97.00;;;;;;5026346;28;20376;-67
2021/09/29 00:34:11;;;;;;;20.17;11.10;;;10.10;96.70;;;;;;5022345;28;20048;-67
2021/09/29 00:36:40;;;;;;;21.83;10.93;;;10.10;96.80;;;;;;5020246;28;21815;-67
2021/09/29 00:39:07;;;;;;;20.88;11.23;;;10.10;96.80;;;;;;5029883;28;20040;-64
2021/09/29 00:41:33;;;;;;;19.63;11.63;;;10.10;96.80;;;;;;5024467;28;20044;-66
2021/09/29 00:43:58;;;;;;;15.90;10.52;;;10.00;96.70;;;;;;5024912;28;20025;-67
2021/09/29 00:46:24;;;;;;;21.17;11.65;;;10.10;96.90;;;;;;5022434;28;20021;-65
2021/09/29 00:48:50;;;;;;;15.95;9.95;;;10.10;96.70;;;;;;5024054;28;20033;-65
2021/09/29 00:51:16;;;;;;;22.80;9.88;;;10.10;96.60;;;;;;5023594;28;20017;-67
2021/09/29 00:53:42;;;;;;;14.30;10.68;;;10.10;96.50;;;;;;5024555;28;20075;-67
2021/09/29 00:56:09;;;;;;;19.70;9.55;;;10.20;96.60;;;;;;5020381;28;20037;-67
2021/09/29 00:58:35;;;;;;;21.00;10.57;;;10.10;96.60;;;;;;5020423;28;20041;-65
2021/09/29 01:01:00;;;;;;;16.10;10.07;;;10.10;96.50;;;;;;5022358;28;20485;-63
2021/09/29 01:03:27;;;;;;;16.58;9.90;;;10.10;96.60;;;;;;5030162;28;20021;-64
2021/09/29 01:05:57;;;;;;;14.50;9.50;;;10.00;96.50;;;;;;5023104;28;20096;-65
2021/09/29 01:08:48;;;;;;;15.50;8.93;;;10.00;96.70;;;;;;5026171;28;20400;-65
2021/09/29 01:11:23;;;;;;;14.80;9.05;;;10.00;96.50;;;;;;5018054;28;20108;-65
2021/09/29 01:14:02;;;;;;;12.63;8.13;;;10.00;96.60;;;;;;5024188;28;20037;-66
2021/09/29 01:16:33;;;;;;;13.60;8.18;;;10.00;96.50;;;;;;5024217;28;20021;-65
2021/09/29 01:19:00;;;;;;;12.52;8.00;;;10.00;96.50;;;;;;5025159;28;20034;-66
2021/09/29 01:21:31;;;;;;;15.27;9.00;;;10.00;96.70;;;;;;5030666;28;20105;-66
2021/09/29 01:24:21;;;;;;;11.00;7.95;;;10.00;96.60;;;;;;5018022;28;20196;-65
2021/09/29 01:26:49;;;;;;;18.45;8.07;;;10.10;96.50;;;;;;5020492;28;20116;-65
2021/09/29 01:29:19;;;;;;;13.60;7.85;;;10.00;96.20;;;;;;5020972;28;20045;-65
2021/09/29 01:31:45;;;;;;;12.80;8.00;;;10.00;96.40;;;;;;5017915;28;20250;-66
2021/09/29 01:34:12;;;;;;;12.98;6.97;;;10.00;96.30;;;;;;5023592;28;20037;-64
2021/09/29 01:36:38;;;;;;;15.82;6.70;;;10.00;96.40;;;;;;5023937;28;20061;-63
2021/09/29 01:39:09;;;;;;;12.38;7.13;;;9.90;96.30;;;;;;5019838;28;20109;-66
2021/09/29 01:41:37;;;;;;;12.07;6.57;;;10.00;96.30;;;;;;5019359;28;20068;-65
2021/09/29 01:44:03;;;;;;;10.65;6.75;;;9.90;96.30;;;;;;5023008;28;20033;-63
2021/09/29 01:46:29;;;;;;;11.30;6.25;;;9.90;96.30;;;;;;5022100;28;20056;-66
2021/09/29 01:48:59;;;;;;;11.45;6.43;;;10.00;96.30;;;;;;5023654;28;20489;-67
2021/09/29 01:51:26;;;;;;;10.15;5.97;;;10.00;96.30;;;;;;5020464;28;20037;-67
2021/09/29 01:53:54;;;;;;;10.43;6.63;;;10.00;96.20;;;;;;5024698;28;20029;-67
2021/09/29 01:56:21;;;;;;;14.25;5.75;;;10.00;96.00;;;;;;5018413;28;20112;-67
2021/09/29 01:58:46;;;;;;;8.63;5.30;;;10.00;96.00;;;;;;5024533;28;20040;-64
2021/09/29 02:01:12;;;;;;;10.00;5.95;;;10.00;95.90;;;;;;5030368;28;20345;-66
2021/09/29 02:03:42;;;;;;;11.77;5.80;;;10.00;95.90;;;;;;5023461;28;20374;-66
2021/09/29 02:06:07;;;;;;;9.27;5.78;;;9.90;96.00;;;;;;5020806;28;20028;-65
2021/09/29 02:08:33;;;;;;;9.73;5.57;;;9.80;96.00;;;;;;5025320;28;20112;-64
2021/09/29 02:10:59;;;;;;;9.98;5.00;;;9.90;96.10;;;;;;5021452;28;20061;-67
2021/09/29 02:13:24;;;;;;;10.90;5.30;;;9.80;96.10;;;;;;5026698;28;20083;-66
2021/09/29 02:15:50;;;;;;;12.70;5.28;;;9.90;96.10;;;;;;5020644;28;20485;-66
2021/09/29 02:18:15;;;;;;;14.52;5.50;;;9.80;96.20;;;;;;5022509;28;20473;-67
2021/09/29 02:20:41;;;;;;;7.38;4.47;;;9.80;96.00;;;;;;5020908;28;20124;-67
2021/09/29 02:23:07;;;;;;;11.88;5.47;;;9.90;96.00;;;;;;5020462;28;20519;-64
2021/09/29 02:25:33;;;;;;;9.75;5.03;;;9.90;96.10;;;;;;5017798;28;20032;-64
2021/09/29 02:27:58;;;;;;;12.55;5.45;;;9.90;96.10;;;;;;5019168;28;20274;-66
2021/09/29 02:30:24;;;;;;;6.75;4.78;;;9.80;96.10;;;;;;5027554;28;20040;-67
2021/09/29 02:32:50;;;;;;;12.13;5.30;;;9.90;96.20;;;;;;5023227;28;20492;-66
2021/09/29 02:35:15;;;;;;;10.05;4.60;;;9.90;96.20;;;;;;5020114;28;20028;-65
2021/09/29 02:37:41;;;;;;;10.52;5.28;;;9.90;96.20;;;;;;5023437;28;20189;-66
2021/09/29 02:40:07;;;;;;;12.90;5.20;;;9.90;96.20;;;;;;5022777;28;20041;-65
2021/09/29 02:42:33;;;;;;;11.90;5.15;;;10.00;96.10;;;;;;5019915;28;20037;-66
2021/09/29 02:45:01;;;;;;;10.00;4.78;;;10.10;95.90;;;;;;5020661;28;20037;-66
2021/09/29 02:47:27;;;;;;;10.57;4.65;;;10.10;95.70;;;;;;5017863;28;20412;-65
2021/09/29 02:49:53;;;;;;;6.75;4.80;;;10.10;95.90;;;;;;5018475;28;20041;-65
2021/09/29 02:52:19;;;;;;;12.00;4.40;;;10.10;95.80;;;;;;5019224;28;20033;-64
2021/09/29 02:54:44;;;;;;;13.65;4.47;;;10.10;95.80;;;;;;5021320;28;20033;-65
2021/09/29 02:57:10;;;;;;;8.43;4.65;;;10.10;95.80;;;;;;5019533;28;20030;-66
2021/09/29 02:59:36;;;;;;;9.40;4.35;;;10.10;95.80;;;;;;5024234;28;20033;-66
2021/09/29 03:02:01;;;;;;;11.82;5.05;;;10.10;95.80;;;;;;5020092;28;20052;-66
2021/09/29 03:04:27;;;;;;;14.27;4.90;;;10.10;95.90;;;;;;5022899;28;20132;-66
2021/09/29 03:06:52;;;;;;;10.30;4.32;;;10.10;95.90;;;;;;5021954;28;20025;-66
2021/09/29 03:09:18;;;;;;;9.60;4.57;;;10.10;95.80;;;;;;5021611;28;20099;-64
2021/09/29 03:11:44;;;;;;;11.68;4.55;;;10.20;95.80;;;;;;5025015;28;20080;-66
2021/09/29 03:14:10;;;;;;;9.93;4.68;;;10.20;95.80;;;;;;5023087;28;20040;-65
2021/09/29 03:16:35;;;;;;;8.23;4.47;;;10.20;95.80;;;;;;5018855;28;20037;-66
2021/09/29 03:19:01;;;;;;;8.68;4.72;;;10.30;95.70;;;;;;5020048;28;20112;-66
2021/09/29 03:21:27;;;;;;;10.50;4.45;;;10.30;95.70;;;;;;5026395;28;20476;-65
2021/09/29 03:23:53;;;;;;;10.93;4.20;;;10.30;95.60;;;;;;5020879;28;20018;-65
2021/09/29 03:26:18;;;;;;;10.57;4.88;;;10.30;95.60;;;;;;5016091;28;20037;-65
2021/09/29 03:28:45;;;;;;;11.20;4.30;;;10.30;95.40;;;;;;5016254;28;20084;-66
2021/09/29 03:31:12;;;;;;;9.77;4.22;;;10.30;95.40;;;;;;5019851;28;20495;-65
2021/09/29 03:33:37;;;;;;;12.27;4.03;;;10.30;95.50;;;;;;5024721;28;20037;-66
2021/09/29 03:36:03;;;;;;;8.82;3.75;;;10.30;95.40;;;;;;5032315;28;20032;-65
2021/09/29 03:38:29;;;;;;;8.98;4.07;;;10.30;95.50;;;;;;5029935;28;20033;-63
2021/09/29 03:40:54;;;;;;;8.15;3.80;;;10.30;95.50;;;;;;5022744;28;20948;-65
2021/09/29 03:43:20;;;;;;;9.75;4.05;;;10.40;95.50;;;;;;5025831;28;20021;-66
2021/09/29 03:45:47;;;;;;;13.18;3.90;;;10.40;95.50;;;;;;5024155;28;20076;-66
2021/09/29 03:48:12;;;;;;;9.65;4.05;;;10.40;95.30;;;;;;5022534;28;20028;-66
2021/09/29 03:50:38;;;;;;;9.35;3.90;;;10.40;95.30;;;;;;5024624;28;20033;-64
2021/09/29 03:53:03;;;;;;;10.88;3.72;;;10.40;95.30;;;;;;5024363;28;20144;-67
2021/09/29 03:55:29;;;;;;;13.85;4.50;;;10.40;95.30;;;;;;5025163;28;20025;-63
2021/09/29 03:57:55;;;;;;;8.77;4.45;;;10.40;95.30;;;;;;5022706;28;20068;-65
2021/09/29 04:00:21;;;;;;;9.85;3.85;;;10.40;95.20;;;;;;5024764;28;20040;-66
2021/09/29 04:02:46;;;;;;;11.75;3.72;;;10.40;95.30;;;;;;5025935;28;20506;-64
2021/09/29 04:05:12;;;;;;;8.38;3.80;;;10.40;95.30;;;;;;5034441;28;20025;-64
2021/09/29 04:07:38;;;;;;;10.65;3.80;;;10.40;95.40;;;;;;5023308;28;20034;-66
2021/09/29 04:10:06;;;;;;;9.32;4.18;;;10.30;95.40;;;;;;5021288;28;20312;-64
2021/09/29 04:12:31;;;;;;;7.55;4.05;;;10.30;95.50;;;;;;5024925;28;20037;-65
2021/09/29 04:14:57;;;;;;;10.00;3.97;;;10.30;95.60;;;;;;5027179;28;20035;-66
2021/09/29 04:17:23;;;;;;;6.85;3.85;;;10.30;95.50;;;;;;5029091;28;20194;-65
2021/09/29 04:19:49;;;;;;;11.40;4.20;;;10.30;95.60;;;;;;5025109;28;20069;-62
2021/09/29 04:22:15;;;;;;;11.00;4.45;;;10.40;95.60;;;;;;5021138;28;20031;-63
2021/09/29 04:24:46;;;;;;;7.60;4.30;;;10.30;95.50;;;;;;5024477;28;20048;-63
2021/09/29 04:27:13;;;;;;;8.82;4.25;;;10.40;95.50;;;;;;5017187;28;21310;-61
2021/09/29 04:29:39;;;;;;;7.20;4.45;;;10.30;95.50;;;;;;5020133;28;20156;-62
2021/09/29 04:32:09;;;;;;;11.73;4.18;;;10.30;95.50;;;;;;5024367;28;20443;-62
2021/09/29 04:34:35;;;;;;;8.68;4.60;;;10.40;95.70;;;;;;5024666;28;20053;-62
2021/09/29 04:37:00;;;;;;;5.53;4.25;;;10.40;95.60;;;;;;5022631;28;20076;-62
2021/09/29 04:39:26;;;;;;;10.95;4.32;;;10.30;95.60;;;;;;5023969;28;20025;-62
2021/09/29 04:41:51;;;;;;;9.65;3.92;;;10.30;95.60;;;;;;5021869;28;20022;-62
2021/09/29 04:44:17;;;;;;;8.27;4.57;;;10.30;95.50;;;;;;5025184;28;20033;-61
2021/09/29 04:46:43;;;;;;;8.88;4.50;;;10.30;95.50;;;;;;5023247;28;20021;-62
2021/09/29 04:49:08;;;;;;;10.88;4.20;;;10.30;95.60;;;;;;5024554;28;20021;-63
2021/09/29 04:51:34;;;;;;;9.48;4.15;;;10.20;95.60;;;;;;5023012;28;20041;-62
2021/09/29 04:54:00;;;;;;;7.50;4.63;;;10.20;95.70;;;;;;5025817;28;20030;-60
2021/09/29 04:56:26;;;;;;;16.17;4.70;;;10.20;95.70;;;;;;5024460;28;20049;-62
2021/09/29 04:58:52;;;;;;;7.80;4.43;;;10.20;95.80;;;;;;5020367;28;20032;-63
2021/09/29 05:01:22;;;;;;;11.60;4.85;;;10.20;95.80;;;;;;5021029;28;20033;-62
2021/09/29 05:03:47;;;;;;;15.32;5.13;;;10.10;95.70;;;;;;5027931;28;20072;-63
2021/09/29 05:06:13;;;;;;;15.07;5.28;;;10.20;95.80;;;;;;5021626;28;20385;-63
2021/09/29 05:08:39;;;;;;;7.47;4.30;;;10.20;95.90;;;;;;5024918;28;20033;-61
2021/09/29 05:11:54;;;;;;;9.30;4.15;;;10.20;95.80;;;;;;5020792;28;20030;-61
2021/09/29 05:14:19;;;;;;;8.98;4.60;;;10.10;95.80;;;;;;5008103;28;20038;-62
2021/09/29 05:16:47;;;;;;;10.07;4.63;;;10.10;96.00;;;;;;5018763;28;20367;-63
2021/09/29 05:19:13;;;;;;;11.18;5.10;;;10.10;96.10;;;;;;5020930;28;20396;-63
2021/09/29 05:21:39;;;;;;;10.85;5.70;;;10.10;96.00;;;;;;5022622;28;20186;-63
2021/09/29 05:24:05;;;;;;;9.35;5.03;;;10.10;96.10;;;;;;5020807;28;20022;-63
2021/09/29 05:26:30;;;;;;;14.38;5.70;;;10.10;96.20;;;;;;5024303;28;20303;-63
2021/09/29 05:28:56;;;;;;;10.38;5.57;;;10.10;96.20;;;;;;5020952;28;20164;-62
2021/09/29 05:31:22;;;;;;;9.50;5.60;;;10.10;96.20;;;;;;5017812;28;20048;-63
2021/09/29 05:33:47;;;;;;;11.05;6.13;;;10.10;96.10;;;;;;5023345;28;20379;-63
2021/09/29 05:36:13;;;;;;;12.40;5.72;;;10.10;96.20;;;;;;5016306;28;20030;-63
2021/09/29 05:38:39;;;;;;;18.05;6.32;;;10.10;96.30;;;;;;5027490;28;20116;-63
2021/09/29 05:41:05;;;;;;;9.20;5.85;;;10.10;96.20;;;;;;5025875;28;20025;-62
2021/09/29 05:43:30;;;;;;;10.63;6.22;;;10.20;96.10;;;;;;5019152;28;20029;-64
2021/09/29 05:45:57;;;;;;;14.93;6.22;;;10.30;96.00;;;;;;5024490;28;20396;-61
2021/09/29 05:48:23;;;;;;;8.68;5.75;;;10.30;95.90;;;;;;5021268;28;20041;-61
2021/09/29 05:50:49;;;;;;;10.13;5.50;;;10.40;95.80;;;;;;5024957;28;20033;-64
2021/09/29 05:53:15;;;;;;;9.65;5.43;;;10.40;95.70;;;;;;5028418;28;20033;-63
2021/09/29 05:55:41;;;;;;;10.65;5.47;;;10.50;95.70;;;;;;5029255;28;20169;-63
2021/09/29 05:58:06;;;;;;;8.77;5.38;;;10.50;95.50;;;;;;5024294;28;20033;-62
2021/09/29 06:00:32;;;;;;;11.60;5.30;;;10.50;95.50;;;;;;5018338;28;20084;-62
2021/09/29 06:02:57;;;;;;;9.73;5.82;;;10.50;95.40;;;;;;5020378;28;20419;-63
2021/09/29 06:05:23;;;;;;;10.43;4.97;;;10.50;95.40;;;;;;5029208;28;20025;-63
2021/09/29 06:07:49;;;;;;;11.00;5.53;;;10.50;95.40;;;;;;5020126;28;20052;-62
2021/09/29 06:10:15;;;;;;;8.50;5.15;;;10.50;95.40;;;;;;5027256;28;20051;-62
2021/09/29 06:12:41;;;;;;;12.15;5.50;;;10.60;95.50;;;;;;5026683;28;20143;-63
2021/09/29 06:15:08;;;;;;;9.45;5.88;;;10.70;95.40;;;;;;5033078;28;20039;-63
2021/09/29 06:17:41;;;;;;;13.68;5.63;;;10.70;95.30;;;;;;5029628;28;20117;-62
2021/09/29 06:20:08;;;;;;;14.68;5.20;;;10.80;95.00;;;;;;5030442;28;20065;-63
2021/09/29 06:22:34;;;;;;;10.32;5.07;;;10.90;95.00;;;;;;5017607;28;20412;-63
2021/09/29 06:25:00;;;;;;;11.63;5.88;;;11.00;94.90;;;;;;5035887;28;20024;-63
2021/09/29 06:27:26;;;;;;;10.93;5.75;;;11.10;94.70;;;;;;5030248;28;20373;-62
2021/09/29 06:29:52;;;;;;;9.85;5.95;;;11.20;94.50;;;;;;5023584;28;20073;-63
2021/09/29 06:32:18;;;;;;;13.02;5.90;;;11.20;94.30;;;;;;5027022;28;20116;-63
2021/09/29 06:34:43;;;;;;;11.88;5.63;;;11.40;94.00;;;;;;5022066;28;20153;-63
2021/09/29 06:37:09;;;;;;;13.75;5.63;;;11.40;93.80;;;;;;5022285;28;20490;-62
2021/09/29 06:39:34;;;;;;;13.52;5.85;;;11.50;93.80;;;;;;5030214;28;20389;-63
2021/09/29 06:42:00;;;;;;;10.60;5.90;;;11.60;93.70;;;;;;5025831;28;20041;-63
2021/09/29 06:44:26;;;;;;;12.95;5.40;;;11.60;93.60;;;;;;5032333;28;20017;-63
2021/09/29 06:46:52;;;;;;;15.02;5.97;;;11.70;93.40;;;;;;5024625;28;20029;-61
2021/09/29 06:49:18;;;;;;;13.85;5.57;;;11.80;93.10;;;;;;5024162;28;20844;-61
2021/09/29 06:51:44;;;;;;;12.00;5.28;;;11.90;92.90;;;;;;5022765;28;20867;-63
2021/09/29 06:54:09;;;;;;;9.13;5.20;;;12.00;92.90;;;;;;5034576;28;20057;-62
2021/09/29 06:56:35;;;;;;;10.93;5.10;;;12.00;92.70;;;;;;5024042;28;20032;-63
2021/09/29 06:59:00;;;;;;;9.02;4.80;;;12.00;92.50;;;;;;5018896;28;20105;-62
2021/09/29 07:01:26;;;;;;;10.13;4.80;;;12.10;92.20;;;;;;5024232;28;20132;-62
2021/09/29 07:03:52;;;;;;;8.60;4.80;;;12.10;92.10;;;;;;5030858;28;20046;-63
2021/09/29 07:06:19;;;;;;;9.43;4.82;;;12.10;92.20;;;;;;5033112;28;20020;-63
2021/09/29 07:08:46;;;;;;;12.02;4.72;;;12.20;92.30;;;;;;5019936;28;20017;-62
2021/09/29 07:11:12;;;;;;;11.02;4.93;;;12.20;92.00;;;;;;5021635;28;20025;-63
2021/09/29 07:13:38;;;;;;;7.65;4.60;;;12.30;92.00;;;;;;5023923;28;20041;-62
2021/09/29 07:16:04;;;;;;;10.90;4.55;;;12.30;92.20;;;;;;5025184;28;20029;-62
2021/09/29 07:18:31;;;;;;;8.27;4.80;;;12.40;91.90;;;;;;5020287;28;20018;-62
2021/09/29 07:20:58;;;;;;;9.63;4.60;;;12.50;91.80;;;;;;5022592;28;20025;-63
2021/09/29 07:23:23;;;;;;;12.73;4.47;;;12.50;91.60;;;;;;5022419;28;20083;-62
2021/09/29 07:25:49;;;;;;;15.73;4.68;;;12.60;91.60;;;;;;5019610;28;20033;-63
2021/09/29 07:28:15;;;;;;;8.82;3.80;;;12.70;91.50;;;;;;5019175;28;20034;-63
2021/09/29 07:30:42;;;;;;;11.65;3.88;;;12.70;90.80;;;;;;5018680;28;20561;-62
2021/09/29 07:33:08;;;;;;;8.68;4.13;;;12.70;91.10;;;;;;5023144;28;20578;-63
2021/09/29 07:35:35;;;;;;;8.68;4.13;;;12.80;91.10;;;;;;5024583;28;20044;-63
2021/09/29 07:38:02;;;;;;;7.32;4.50;;;12.90;90.90;;;;;;5025650;28;20593;-61
2021/09/29 07:40:28;;;;;;;6.93;3.50;;;13.00;90.30;;;;;;5030941;28;20091;-61
2021/09/29 07:42:55;;;;;;;8.48;4.13;;;13.10;90.00;;;;;;5021375;28;20029;-62
2021/09/29 07:45:22;;;;;;;6.20;3.97;;;13.20;89.90;;;;;;5023513;28;20087;-62
2021/09/29 07:47:48;;;;;;;10.50;4.13;;;13.40;89.50;;;;;;5023132;28;20029;-61
2021/09/29 07:50:16;;;;;;;8.57;3.80;;;13.60;89.10;;;;;;5028838;28;20535;-62
2021/09/29 07:52:42;;;;;;;13.40;3.97;;;13.80;89.40;;;;;;5031336;28;20480;-61
2021/09/29 07:55:08;;;;;;;10.10;3.97;;;13.90;88.30;;;;;;5021097;28;20122;-62
2021/09/29 07:57:34;;;;;;;8.60;3.97;;;14.00;87.70;;;;;;5034343;28;20500;-62
2021/09/29 07:59:59;;;;;;;5.57;3.72;;;14.00;87.90;;;;;;5018455;28;20040;-65
2021/09/29 08:02:26;;;;;;;9.27;4.10;;;14.00;86.80;;;;;;5018674;28;20055;-62
2021/09/29 08:04:52;;;;;;;7.15;3.95;;;13.90;87.20;;;;;;5028150;28;20033;-64
2021/09/29 08:07:18;;;;;;;9.45;3.50;;;13.90;87.90;;;;;;5025142;28;20022;-64
2021/09/29 08:09:43;;;;;;;6.55;3.53;;;13.90;87.70;;;;;;5022404;28;20033;-62
2021/09/29 08:12:09;;;;;;;6.50;3.38;;;13.90;86.90;;;;;;5024663;28;20029;-63
2021/09/29 08:14:39;;;;;;;6.80;3.70;;;14.00;87.20;;;;;;5021699;28;20497;-62
2021/09/29 08:17:06;;;;;;;8.23;3.53;;;14.20;87.70;;;;;;5019927;28;20034;-62
2021/09/29 08:19:33;;;;;;;7.65;3.38;;;14.20;87.30;;;;;;5023195;28;20037;-62
2021/09/29 08:22:02;;;;;;;7.95;3.17;;;14.20;87.00;;;;;;5021713;28;20103;-62
2021/09/29 08:24:36;;;;;;;8.35;3.42;;;14.20;86.70;;;;;;5029759;28;20028;-65
2021/09/29 08:27:26;;;;;;;6.40;3.35;;;14.20;86.70;;;;;;5026154;28;20026;-62
2021/09/29 08:32:26;;;;;;;8.98;2.80;;;14.10;86.50;;;;;;5022213;28;20014;-64
2021/09/29 08:35:25;;;;;;;5.43;2.67;;;14.30;86.90;;;;;;5024482;28;20068;-64
2021/09/29 08:37:42;;;;;;;7.22;2.90;;;14.20;86.40;;;;;;5022307;28;20103;-65
2021/09/29 08:40:14;;;;;;;8.25;3.00;;;14.20;86.80;;;;;;5022572;28;20071;-63
2021/09/29 08:45:32;;;;;;;5.10;2.25;;;14.30;86.20;;;;;;5022010;28;20038;-65
2021/09/29 09:18:12;;;;;;;6.90;2.17;;;16.10;78.50;;;;;;5024688;28;20064;-64
2021/09/29 09:20:43;;;;;;;7.35;2.47;;;16.40;78.40;;;;;;5016334;28;20488;-64
2021/09/29 09:23:08;;;;;;;6.35;2.10;;;16.40;78.50;;;;;;5022148;28;20033;-63
2021/09/29 09:25:37;;;;;;;4.70;2.35;;;16.70;78.00;;;;;;5018688;28;20037;-64
2021/09/29 09:28:04;;;;;;;4.32;2.22;;;16.80;75.80;;;;;;5031729;28;20037;-65
2021/09/29 09:30:35;;;;;;;5.88;2.13;;;16.70;77.00;;;;;;5026348;28;20676;-64
2021/09/29 09:33:02;;;;;;;6.15;2.08;;;17.00;77.70;;;;;;5020649;28;20633;-64
2021/09/29 09:35:44;;;;;;;7.10;2.47;;;17.00;75.70;;;;;;5022741;28;20056;-63
2021/09/29 09:38:19;;;;;;;5.28;2.42;;;17.10;75.80;;;;;;5025645;28;20055;-64
2021/09/29 09:40:45;;;;;;;6.45;2.55;;;16.50;76.80;;;;;;5034800;28;20108;-63
2021/09/29 09:43:13;;;;;;;6.40;2.88;;;16.70;76.00;;;;;;5025713;28;20045;-61
2021/09/29 09:45:43;;;;;;;5.30;1.90;;;16.60;76.60;;;;;;5031515;28;20040;-63
2021/09/29 09:48:23;;;;;;;6.78;2.33;;;16.70;76.90;;;;;;5023929;28;20029;-62
2021/09/29 09:51:12;;;;;;;9.52;2.20;;;16.80;77.60;;;;;;5012634;28;20029;-62
2021/09/29 09:53:38;;;;;;;6.60;2.35;;;16.50;76.60;;;;;;5021183;28;20067;-62
2021/09/29 09:56:18;;;;;;;6.55;2.50;;;16.30;78.40;;;;;;5024802;28;20060;-61
2021/09/29 09:58:48;;;;;;;4.40;2.20;;;16.20;79.50;;;;;;5032158;28;20033;-62
2021/09/29 10:01:18;;;;;;;7.57;2.53;;;16.50;79.40;;;;;;5013303;28;20166;-64
2021/09/29 10:03:44;;;;;;;7.13;2.58;;;17.00;78.10;;;;;;5018944;28;20034;-66
2021/09/29 10:06:10;;;;;;;6.20;2.22;;;17.50;76.90;;;;;;5025035;28;20534;-63
2021/09/29 10:08:36;;;;;;;7.00;2.63;;;17.50;76.10;;;;;;5028315;28;20029;-66
2021/09/29 10:11:09;;;;;;;6.53;2.72;;;17.90;76.60;;;;;;5022362;28;20040;-64
2021/09/29 10:27:37;;;;;;;6.25;2.50;;;17.70;75.00;;;;;;5016433;28;20033;-65
2021/09/29 10:30:10;;;;;;;7.00;2.50;;;17.80;74.60;;;;;;5016954;28;20024;-66
2021/09/29 10:32:45;;;;;;;7.25;2.40;;;17.70;73.30;;;;;;5022611;28;20634;-65
2021/09/29 10:35:31;;;;;;;6.88;2.20;;;17.60;74.10;;;;;;5021570;28;20168;-65
2021/09/29 10:43:27;;;;;;;4.47;2.10;;;18.20;74.10;;;;;;5018459;28;20374;-66
2021/09/29 10:46:21;;;;;;;5.13;2.60;;;18.00;73.20;;;;;;5020666;28;20030;-64
2021/09/29 10:51:58;;;;;;;5.68;2.17;;;17.80;72.00;;;;;;5025908;28;20715;-64
2021/09/29 11:29:52;;;;;;;9.43;2.10;;;18.50;67.50;;;;;;5024381;28;20526;-64
2021/09/29 11:34:48;;;;;;;4.70;1.95;;;19.10;68.40;;;;;;5023092;28;20113;-64
2021/09/29 11:40:13;;;;;;;4.72;1.42;;;19.70;64.30;;;;;;5022655;28;20104;-65
2021/09/29 12:10:29;;;;;;;5.38;1.30;;;20.20;61.30;;;;;;5036679;28;20098;-63
2021/09/29 12:12:56;;;;;;;3.58;1.10;;;19.50;62.90;;;;;;5028477;28;20504;-64
2021/09/29 12:15:23;;;;;;;5.63;1.20;;;18.80;62.60;;;;;;5020663;28;20095;-66
2021/09/29 12:17:51;;;;;;;4.93;1.42;;;18.40;64.20;;;;;;5022819;28;20041;-65
2021/09/29 12:20:27;;;;;;;9.52;1.50;;;18.20;66.90;;;;;;5021914;28;20091;-65
2021/09/29 12:22:57;;;;;;;4.00;1.17;;;18.00;68.10;;;;;;5020142;28;20033;-65
2021/09/29 12:25:27;;;;;;;4.67;1.17;;;17.80;67.80;;;;;;5024766;28;20017;-64
2021/09/29 12:36:15;;;;;;;3.95;1.30;;;18.40;66.20;;;;;;5022565;28;20037;-66
2021/09/29 12:38:43;;;;;;;3.80;1.00;;;18.30;66.30;;;;;;5024712;28;20083;-64
2021/09/29 12:41:09;;;;;;;3.13;0.90;;;17.80;65.60;;;;;;5034784;28;20185;-64
2021/09/29 12:43:34;;;;;;;2.15;0.80;;;17.60;67.60;;;;;;5025105;28;20614;-64
2021/09/29 12:46:00;;;;;;;3.92;1.00;;;16.70;73.50;;;;;;5022407;28;20028;-66
2021/09/29 12:48:28;;;;;;;4.57;1.40;;;15.20;84.30;;;;;;5021847;28;20029;-66
2021/09/29 12:51:00;;;;;;;5.68;1.42;;;14.60;88.80;;;;;;5037918;28;20291;-65
2021/09/29 12:53:52;;;;;;;3.78;1.15;;;14.40;89.30;;;;;;5036705;28;20032;-66
2021/09/29 12:56:18;;;;;;;5.38;1.65;;;14.20;90.50;;;;;;5038460;28;20412;-66
2021/09/29 12:58:47;;;;;;;5.38;1.58;;;14.40;91.20;;;;;;5037218;28;20448;-65
2021/09/29 13:01:14;;;;;;;7.22;1.60;;;14.50;92.00;;;;;;5024420;28;20515;-66
2021/09/29 13:03:40;;;;;;;8.27;1.90;;;14.50;91.60;;;;;;5029188;28;20038;-66
2021/09/29 13:06:05;;;;;;;9.73;1.90;;;14.50;91.80;;;;;;5028253;28;20076;-66
2021/09/29 13:08:31;;;;;;;2.30;1.48;;;14.50;92.10;;;;;;5023789;28;20033;-64
2021/09/29 13:10:58;;;;;;;3.78;1.52;;;14.50;91.20;;;;;;5028904;28;20447;-66
2021/09/29 13:13:25;;;;;;;6.38;1.58;;;14.50;92.00;;;;;;5025885;28;20041;-66
2021/09/29 13:15:53;;;;;;;2.97;1.40;;;14.40;91.40;;;;;;5024571;28;20078;-65
2021/09/29 13:18:25;;;;;;;4.53;1.70;;;14.40;92.30;;;;;;5025315;28;20038;-65
2021/09/29 13:24:00;;;;;;;7.07;1.85;;;14.40;92.10;;;;;;5007224;28;20073;-66
2021/09/29 13:37:17;;;;;;;7.63;2.03;;;14.50;92.60;;;;;;5018688;28;20052;-65
2021/09/29 13:39:44;;;;;;;9.68;2.45;;;14.50;92.30;;;;;;5023990;28;20033;-65
2021/09/29 13:42:10;;;;;;;4.45;1.98;;;14.60;92.60;;;;;;5025826;28;20036;-66
2021/09/29 13:44:35;;;;;;;4.50;2.20;;;14.70;92.00;;;;;;5023747;28;20392;-65
2021/09/29 13:47:01;;;;;;;4.35;2.10;;;14.90;92.40;;;;;;5017600;28;20037;-65
2021/09/29 13:49:27;;;;;;;6.90;2.22;;;15.00;91.70;;;;;;5024924;28;20055;-65
2021/09/29 13:51:56;;;;;;;9.20;2.17;;;15.00;90.40;;;;;;5022893;28;20607;-66
2021/09/29 13:54:23;;;;;;;6.32;1.77;;;15.50;90.00;;;;;;5024572;28;20061;-66
2021/09/29 13:59:47;;;;;;;6.70;1.88;;;15.60;89.50;;;;;;5027373;28;20053;-66
2021/09/29 14:29:33;;;;;;;6.93;1.95;;;14.30;91.20;;;;;;5023651;28;20036;-67
2021/09/29 14:34:24;;;;;;;5.50;1.50;;;14.20;91.70;;;;;;5024297;28;20021;-66
2021/09/29 14:36:50;;;;;;;3.40;1.85;;;14.10;90.80;;;;;;5024214;28;20132;-65
2021/09/29 14:39:16;;;;;;;6.25;1.42;;;14.00;90.90;;;;;;5025214;28;20026;-66
2021/09/29 14:41:42;;;;;;;3.13;1.45;;;14.00;91.00;;;;;;5022560;28;20557;-66
2021/09/29 14:44:08;;;;;;;4.43;1.40;;;13.90;91.70;;;;;;5028887;28;20025;-65
2021/09/29 14:46:34;;;;;;;3.75;1.45;;;13.60;90.90;;;;;;5025940;28;20400;-65
2021/09/29 14:49:00;;;;;;;2.28;0.70;;;13.30;92.50;;;;;;5016138;28;20025;-65
2021/09/29 14:51:26;;;;;;;0.63;0.43;;;12.70;90.80;;;;;;5028423;28;20026;-65
2021/09/29 14:53:55;;;;;;;0.90;0.57;;;12.40;91.50;;;;;;5025034;28;20691;-66
2021/09/29 14:56:21;;;;;;;2.38;0.55;;;12.20;92.10;;;;;;5030740;28;20045;-65
2021/09/29 14:58:47;;;;;;;3.97;0.80;;;12.00;93.50;;;;;;5023040;28;20037;-64
2021/09/29 15:01:14;;;;;;;3.58;0.70;;;11.90;94.20;;;;;;5021748;28;20056;-66
2021/09/29 15:03:41;;;;;;;3.25;0.80;;;11.90;94.40;;;;;;5021894;28;20091;-64
2021/09/29 15:06:07;;;;;;;2.33;1.08;;;11.80;94.60;;;;;;5023566;28;20030;-66
2021/09/29 15:08:36;;;;;;;2.42;1.05;;;11.80;95.10;;;;;;5018565;28;20036;-66
2021/09/29 15:11:02;;;;;;;4.72;1.10;;;11.80;95.60;;;;;;5024786;28;20037;-66
2021/09/29 15:13:30;;;;;;;2.10;1.08;;;11.80;95.40;;;;;;5026463;28;20400;-66
2021/09/29 15:16:03;;;;;;;3.22;1.10;;;11.70;95.60;;;;;;5024763;28;20037;-66
2021/09/29 15:26:57;;;;;;;3.72;1.52;;;11.70;96.00;;;;;;5027445;28;20392;-66
2021/09/29 15:32:05;;;;;;;2.28;1.60;;;11.70;96.20;;;;;;5025385;28;20032;-65
2021/09/29 15:48:48;;;;;;;3.97;1.85;;;11.70;96.20;;;;;;5020089;28;20515;-65
2021/09/29 15:51:12;;;;;;;5.35;2.15;;;11.70;96.40;;;;;;5024524;28;20042;-66
2021/09/29 16:09:50;;;;;;;2.38;1.20;;;11.40;94.70;;;;;;5025192;28;20663;-65
2021/09/29 16:30:57;;;;;;;0.90;0.80;;;11.40;92.60;;;;;;5020473;28;20030;-64
2021/09/29 16:35:52;;;;;;;2.20;0.90;;;11.30;93.10;;;;;;5028025;28;20044;-65
2021/09/29 16:38:18;;;;;;;1.10;0.80;;;11.20;93.10;;;;;;5025249;28;20044;-65
2021/09/29 16:40:44;;;;;;;0.93;0.70;;;11.20;93.30;;;;;;5025831;28;20037;-64
2021/09/29 16:43:10;;;;;;;1.67;0.90;;;11.10;92.80;;;;;;5032422;28;20029;-64
2021/09/29 16:45:37;;;;;;;1.30;0.85;;;11.10;93.10;;;;;;5038849;28;20025;-66
2021/09/29 16:48:03;;;;;;;1.10;0.80;;;11.10;93.30;;;;;;5023892;28;20029;-66